sensor_id;sensor_type;location;lat;lon;timestamp;P1;durP1;ratioP1;P2;durP2;ratioP2
54125;SDS011;40360;52.992;6.796;2024-01-27T00:01:41;23.13;;;4.28;;
54125;SDS011;40360;52.992;6.796;2024-01-27T00:04:08;21.98;;;3.55;;
54125;SDS011;40360;52.992;6.796;2024-01-27T00:06:34;30.17;;;4.50;;
54125;SDS011;40360;52.992;6.796;2024-01-27T00:08:59;15.18;;;3.35;;
54125;SDS011;40360;52.992;6.796;2024-01-27T00:11:25;19.70;;;4.18;;
54125;SDS011;40360;52.992;6.796;2024-01-27T00:13:51;22.48;;;5.20;;
54125;SDS011;40360;52.992;6.796;2024-01-27T00:16:17;20.02;;;4.60;;
54125;SDS011;40360;52.992;6.796;2024-01-27T00:18:43;23.50;;;4.07;;
54125;SDS011;40360;52.992;6.796;2024-01-27T00:21:09;24.40;;;4.13;;
54125;SDS011;40360;52.992;6.796;2024-01-27T00:23:34;23.40;;;4.45;;
54125;SDS011;40360;52.992;6.796;2024-01-27T00:26:01;24.05;;;3.63;;
54125;SDS011;40360;52.992;6.796;2024-01-27T00:28:26;21.38;;;4.43;;
54125;SDS011;40360;52.992;6.796;2024-01-27T00:30:52;19.17;;;3.65;;
54125;SDS011;40360;52.992;6.796;2024-01-27T00:33:18;21.38;;;3.70;;
54125;SDS011;40360;52.992;6.796;2024-01-27T00:35:44;19.35;;;4.68;;
54125;SDS011;40360;52.992;6.796;2024-01-27T00:38:10;19.55;;;4.07;;
54125;SDS011;40360;52.992;6.796;2024-01-27T00:40:36;21.23;;;4.28;;
54125;SDS011;40360;52.992;6.796;2024-01-27T00:43:02;19.65;;;5.22;;
54125;SDS011;40360;52.992;6.796;2024-01-27T00:45:28;19.17;;;4.35;;
54125;SDS011;40360;52.992;6.796;2024-01-27T00:47:55;24.25;;;5.00;;
54125;SDS011;40360;52.992;6.796;2024-01-27T00:50:22;35.55;;;5.47;;
54125;SDS011;40360;52.992;6.796;2024-01-27T00:52:47;21.63;;;3.90;;
54125;SDS011;40360;52.992;6.796;2024-01-27T00:55:14;18.38;;;4.10;;
54125;SDS011;40360;52.992;6.796;2024-01-27T00:57:40;24.67;;;5.80;;
54125;SDS011;40360;52.992;6.796;2024-01-27T01:00:06;24.45;;;4.25;;
54125;SDS011;40360;52.992;6.796;2024-01-27T01:02:33;20.58;;;4.22;;
54125;SDS011;40360;52.992;6.796;2024-01-27T01:05:00;19.15;;;3.70;;
54125;SDS011;40360;52.992;6.796;2024-01-27T01:07:29;28.15;;;4.53;;
54125;SDS011;40360;52.992;6.796;2024-01-27T01:09:55;28.48;;;6.47;;
54125;SDS011;40360;52.992;6.796;2024-01-27T01:12:21;24.10;;;4.18;;
54125;SDS011;40360;52.992;6.796;2024-01-27T01:14:47;23.60;;;4.45;;
54125;SDS011;40360;52.992;6.796;2024-01-27T01:17:12;26.73;;;4.35;;
54125;SDS011;40360;52.992;6.796;2024-01-27T01:19:38;21.40;;;5.45;;
54125;SDS011;40360;52.992;6.796;2024-01-27T01:22:05;23.08;;;4.13;;
54125;SDS011;40360;52.992;6.796;2024-01-27T01:24:32;37.50;;;4.60;;
54125;SDS011;40360;52.992;6.796;2024-01-27T01:26:58;19.50;;;4.70;;
54125;SDS011;40360;52.992;6.796;2024-01-27T01:29:24;19.30;;;2.92;;
54125;SDS011;40360;52.992;6.796;2024-01-27T01:31:50;19.48;;;4.70;;
54125;SDS011;40360;52.992;6.796;2024-01-27T01:34:16;25.73;;;3.97;;
54125;SDS011;40360;52.992;6.796;2024-01-27T01:36:42;24.20;;;5.85;;
54125;SDS011;40360;52.992;6.796;2024-01-27T01:39:09;23.42;;;4.13;;
54125;SDS011;40360;52.992;6.796;2024-01-27T01:41:35;19.33;;;4.50;;
54125;SDS011;40360;52.992;6.796;2024-01-27T01:44:04;17.45;;;4.95;;
54125;SDS011;40360;52.992;6.796;2024-01-27T01:46:30;19.60;;;4.43;;
54125;SDS011;40360;52.992;6.796;2024-01-27T01:48:56;16.77;;;3.25;;
54125;SDS011;40360;52.992;6.796;2024-01-27T01:51:22;16.95;;;4.50;;
54125;SDS011;40360;52.992;6.796;2024-01-27T01:53:49;19.17;;;3.55;;
54125;SDS011;40360;52.992;6.796;2024-01-27T01:56:16;12.75;;;3.55;;
54125;SDS011;40360;52.992;6.796;2024-01-27T01:58:41;16.25;;;4.65;;
54125;SDS011;40360;52.992;6.796;2024-01-27T02:01:07;25.08;;;4.10;;
54125;SDS011;40360;52.992;6.796;2024-01-27T02:03:34;15.82;;;3.88;;
54125;SDS011;40360;52.992;6.796;2024-01-27T02:05:59;12.30;;;3.80;;
54125;SDS011;40360;52.992;6.796;2024-01-27T02:08:25;20.75;;;4.45;;
54125;SDS011;40360;52.992;6.796;2024-01-27T02:10:51;15.50;;;3.58;;
54125;SDS011;40360;52.992;6.796;2024-01-27T02:13:17;22.42;;;4.60;;
54125;SDS011;40360;52.992;6.796;2024-01-27T02:15:44;25.02;;;4.43;;
54125;SDS011;40360;52.992;6.796;2024-01-27T02:18:11;18.02;;;3.95;;
54125;SDS011;40360;52.992;6.796;2024-01-27T02:20:36;15.82;;;3.15;;
54125;SDS011;40360;52.992;6.796;2024-01-27T02:23:03;12.55;;;3.58;;
54125;SDS011;40360;52.992;6.796;2024-01-27T02:25:30;17.25;;;4.03;;
54125;SDS011;40360;52.992;6.796;2024-01-27T02:27:57;13.20;;;3.38;;
54125;SDS011;40360;52.992;6.796;2024-01-27T02:30:22;20.02;;;4.15;;
54125;SDS011;40360;52.992;6.796;2024-01-27T02:32:48;26.15;;;4.07;;
54125;SDS011;40360;52.992;6.796;2024-01-27T02:35:14;18.45;;;3.80;;
54125;SDS011;40360;52.992;6.796;2024-01-27T02:37:41;18.83;;;3.58;;
54125;SDS011;40360;52.992;6.796;2024-01-27T02:40:08;15.88;;;4.40;;
54125;SDS011;40360;52.992;6.796;2024-01-27T02:42:35;18.90;;;3.60;;
54125;SDS011;40360;52.992;6.796;2024-01-27T02:45:02;24.33;;;3.72;;
54125;SDS011;40360;52.992;6.796;2024-01-27T02:47:28;31.88;;;5.07;;
54125;SDS011;40360;52.992;6.796;2024-01-27T02:49:54;20.83;;;3.78;;
54125;SDS011;40360;52.992;6.796;2024-01-27T02:52:20;18.35;;;3.70;;
54125;SDS011;40360;52.992;6.796;2024-01-27T02:54:45;18.52;;;3.65;;
54125;SDS011;40360;52.992;6.796;2024-01-27T02:57:11;27.75;;;4.20;;
54125;SDS011;40360;52.992;6.796;2024-01-27T02:59:40;18.20;;;4.38;;
54125;SDS011;40360;52.992;6.796;2024-01-27T03:02:06;18.88;;;4.55;;
54125;SDS011;40360;52.992;6.796;2024-01-27T03:04:32;26.98;;;3.55;;
54125;SDS011;40360;52.992;6.796;2024-01-27T03:06:58;14.77;;;3.58;;
54125;SDS011;40360;52.992;6.796;2024-01-27T03:09:24;25.58;;;4.47;;
54125;SDS011;40360;52.992;6.796;2024-01-27T03:11:50;17.52;;;4.38;;
54125;SDS011;40360;52.992;6.796;2024-01-27T03:14:16;11.75;;;3.35;;
54125;SDS011;40360;52.992;6.796;2024-01-27T03:16:43;19.38;;;3.60;;
54125;SDS011;40360;52.992;6.796;2024-01-27T03:19:09;18.58;;;4.28;;
54125;SDS011;40360;52.992;6.796;2024-01-27T03:21:35;20.48;;;4.55;;
54125;SDS011;40360;52.992;6.796;2024-01-27T03:24:01;25.33;;;4.10;;
54125;SDS011;40360;52.992;6.796;2024-01-27T03:26:27;16.73;;;4.63;;
54125;SDS011;40360;52.992;6.796;2024-01-27T03:28:53;20.10;;;4.38;;
54125;SDS011;40360;52.992;6.796;2024-01-27T03:31:19;15.65;;;3.55;;
54125;SDS011;40360;52.992;6.796;2024-01-27T03:33:44;15.38;;;3.08;;
54125;SDS011;40360;52.992;6.796;2024-01-27T03:36:11;22.77;;;4.93;;
54125;SDS011;40360;52.992;6.796;2024-01-27T03:38:38;15.63;;;3.10;;
54125;SDS011;40360;52.992;6.796;2024-01-27T03:41:08;15.95;;;3.67;;
54125;SDS011;40360;52.992;6.796;2024-01-27T03:43:34;24.15;;;4.03;;
54125;SDS011;40360;52.992;6.796;2024-01-27T03:46:01;15.90;;;3.30;;
54125;SDS011;40360;52.992;6.796;2024-01-27T03:48:28;17.77;;;3.83;;
54125;SDS011;40360;52.992;6.796;2024-01-27T03:50:54;16.52;;;3.42;;
54125;SDS011;40360;52.992;6.796;2024-01-27T03:53:19;20.88;;;3.92;;
54125;SDS011;40360;52.992;6.796;2024-01-27T03:55:45;13.05;;;3.78;;
54125;SDS011;40360;52.992;6.796;2024-01-27T03:58:11;21.52;;;3.70;;
54125;SDS011;40360;52.992;6.796;2024-01-27T04:00:36;23.50;;;3.55;;
54125;SDS011;40360;52.992;6.796;2024-01-27T04:03:02;19.45;;;3.50;;
54125;SDS011;40360;52.992;6.796;2024-01-27T04:05:28;23.88;;;2.78;;
54125;SDS011;40360;52.992;6.796;2024-01-27T04:07:55;18.65;;;4.40;;
54125;SDS011;40360;52.992;6.796;2024-01-27T04:10:21;17.25;;;3.58;;
54125;SDS011;40360;52.992;6.796;2024-01-27T04:12:48;25.25;;;4.03;;
54125;SDS011;40360;52.992;6.796;2024-01-27T04:15:14;22.73;;;3.53;;
54125;SDS011;40360;52.992;6.796;2024-01-27T04:17:40;20.00;;;3.63;;
54125;SDS011;40360;52.992;6.796;2024-01-27T04:20:07;22.00;;;4.20;;
54125;SDS011;40360;52.992;6.796;2024-01-27T04:22:33;18.55;;;3.78;;
54125;SDS011;40360;52.992;6.796;2024-01-27T04:24:59;22.52;;;4.15;;
54125;SDS011;40360;52.992;6.796;2024-01-27T04:27:28;17.08;;;3.42;;
54125;SDS011;40360;52.992;6.796;2024-01-27T04:29:54;20.15;;;4.25;;
54125;SDS011;40360;52.992;6.796;2024-01-27T04:32:22;18.70;;;5.10;;
54125;SDS011;40360;52.992;6.796;2024-01-27T04:34:48;15.75;;;3.17;;
54125;SDS011;40360;52.992;6.796;2024-01-27T04:37:14;19.50;;;3.53;;
54125;SDS011;40360;52.992;6.796;2024-01-27T04:39:40;22.48;;;4.15;;
54125;SDS011;40360;52.992;6.796;2024-01-27T04:42:06;15.40;;;3.63;;
54125;SDS011;40360;52.992;6.796;2024-01-27T04:44:32;23.33;;;4.15;;
54125;SDS011;40360;52.992;6.796;2024-01-27T04:46:58;21.63;;;4.60;;
54125;SDS011;40360;52.992;6.796;2024-01-27T04:49:25;21.55;;;3.58;;
54125;SDS011;40360;52.992;6.796;2024-01-27T04:51:51;19.50;;;4.57;;
54125;SDS011;40360;52.992;6.796;2024-01-27T04:54:17;19.42;;;3.58;;
54125;SDS011;40360;52.992;6.796;2024-01-27T04:56:42;19.50;;;3.05;;
54125;SDS011;40360;52.992;6.796;2024-01-27T04:59:08;21.30;;;4.10;;
54125;SDS011;40360;52.992;6.796;2024-01-27T05:01:35;16.98;;;3.67;;
54125;SDS011;40360;52.992;6.796;2024-01-27T05:04:01;11.43;;;2.75;;
54125;SDS011;40360;52.992;6.796;2024-01-27T05:06:26;16.63;;;3.38;;
54125;SDS011;40360;52.992;6.796;2024-01-27T05:08:52;30.25;;;5.15;;
54125;SDS011;40360;52.992;6.796;2024-01-27T05:11:25;18.73;;;3.88;;
54125;SDS011;40360;52.992;6.796;2024-01-27T05:13:54;22.83;;;3.40;;
54125;SDS011;40360;52.992;6.796;2024-01-27T05:16:20;26.85;;;5.63;;
54125;SDS011;40360;52.992;6.796;2024-01-27T05:18:46;14.27;;;3.88;;
54125;SDS011;40360;52.992;6.796;2024-01-27T05:21:12;16.15;;;4.25;;
54125;SDS011;40360;52.992;6.796;2024-01-27T05:23:37;17.05;;;4.15;;
54125;SDS011;40360;52.992;6.796;2024-01-27T05:26:06;16.38;;;3.83;;
54125;SDS011;40360;52.992;6.796;2024-01-27T05:28:32;21.33;;;5.38;;
54125;SDS011;40360;52.992;6.796;2024-01-27T05:30:58;25.33;;;4.97;;
54125;SDS011;40360;52.992;6.796;2024-01-27T05:33:24;21.38;;;3.58;;
54125;SDS011;40360;52.992;6.796;2024-01-27T05:35:50;25.95;;;5.25;;
54125;SDS011;40360;52.992;6.796;2024-01-27T05:38:15;16.98;;;4.05;;
54125;SDS011;40360;52.992;6.796;2024-01-27T05:40:41;24.13;;;3.90;;
54125;SDS011;40360;52.992;6.796;2024-01-27T05:43:08;24.45;;;4.10;;
54125;SDS011;40360;52.992;6.796;2024-01-27T05:45:34;24.10;;;4.35;;
54125;SDS011;40360;52.992;6.796;2024-01-27T05:48:00;24.90;;;4.03;;
54125;SDS011;40360;52.992;6.796;2024-01-27T05:50:26;17.77;;;3.65;;
54125;SDS011;40360;52.992;6.796;2024-01-27T05:52:52;17.40;;;4.95;;
54125;SDS011;40360;52.992;6.796;2024-01-27T05:55:21;21.90;;;4.53;;
54125;SDS011;40360;52.992;6.796;2024-01-27T05:57:46;20.25;;;4.03;;
54125;SDS011;40360;52.992;6.796;2024-01-27T06:00:12;22.58;;;4.78;;
54125;SDS011;40360;52.992;6.796;2024-01-27T06:02:39;23.20;;;4.63;;
54125;SDS011;40360;52.992;6.796;2024-01-27T06:05:04;25.98;;;4.82;;
54125;SDS011;40360;52.992;6.796;2024-01-27T06:07:30;14.73;;;4.22;;
54125;SDS011;40360;52.992;6.796;2024-01-27T06:09:56;19.30;;;6.15;;
54125;SDS011;40360;52.992;6.796;2024-01-27T06:12:22;15.35;;;4.15;;
54125;SDS011;40360;52.992;6.796;2024-01-27T06:14:47;15.20;;;4.45;;
54125;SDS011;40360;52.992;6.796;2024-01-27T06:17:13;22.38;;;4.85;;
54125;SDS011;40360;52.992;6.796;2024-01-27T06:19:41;27.13;;;4.07;;
54125;SDS011;40360;52.992;6.796;2024-01-27T06:22:06;19.42;;;3.65;;
54125;SDS011;40360;52.992;6.796;2024-01-27T06:24:32;23.75;;;5.50;;
54125;SDS011;40360;52.992;6.796;2024-01-27T06:26:58;32.53;;;4.45;;
54125;SDS011;40360;52.992;6.796;2024-01-27T06:29:24;34.40;;;5.38;;
54125;SDS011;40360;52.992;6.796;2024-01-27T06:31:52;20.52;;;5.25;;
54125;SDS011;40360;52.992;6.796;2024-01-27T06:34:18;18.95;;;3.42;;
54125;SDS011;40360;52.992;6.796;2024-01-27T06:36:44;24.00;;;5.20;;
54125;SDS011;40360;52.992;6.796;2024-01-27T06:39:10;22.85;;;4.75;;
54125;SDS011;40360;52.992;6.796;2024-01-27T06:41:36;17.15;;;4.25;;
54125;SDS011;40360;52.992;6.796;2024-01-27T06:44:02;17.50;;;4.65;;
54125;SDS011;40360;52.992;6.796;2024-01-27T06:46:28;25.70;;;4.78;;
54125;SDS011;40360;52.992;6.796;2024-01-27T06:48:54;18.38;;;3.88;;
54125;SDS011;40360;52.992;6.796;2024-01-27T06:51:20;28.65;;;6.55;;
54125;SDS011;40360;52.992;6.796;2024-01-27T06:53:46;25.42;;;4.88;;
54125;SDS011;40360;52.992;6.796;2024-01-27T06:56:13;22.88;;;5.45;;
54125;SDS011;40360;52.992;6.796;2024-01-27T06:58:40;31.90;;;4.78;;
54125;SDS011;40360;52.992;6.796;2024-01-27T07:01:06;18.15;;;4.20;;
54125;SDS011;40360;52.992;6.796;2024-01-27T07:03:33;29.92;;;6.03;;
54125;SDS011;40360;52.992;6.796;2024-01-27T07:05:59;24.02;;;6.10;;
54125;SDS011;40360;52.992;6.796;2024-01-27T07:08:26;26.23;;;5.82;;
54125;SDS011;40360;52.992;6.796;2024-01-27T07:10:52;26.05;;;5.68;;
54125;SDS011;40360;52.992;6.796;2024-01-27T07:13:17;19.25;;;6.72;;
54125;SDS011;40360;52.992;6.796;2024-01-27T07:15:44;12.98;;;4.70;;
54125;SDS011;40360;52.992;6.796;2024-01-27T07:18:10;24.02;;;6.05;;
54125;SDS011;40360;52.992;6.796;2024-01-27T07:20:35;22.27;;;5.07;;
54125;SDS011;40360;52.992;6.796;2024-01-27T07:23:02;30.50;;;6.00;;
54125;SDS011;40360;52.992;6.796;2024-01-27T07:25:28;23.52;;;6.57;;
54125;SDS011;40360;52.992;6.796;2024-01-27T07:27:56;22.10;;;6.05;;
54125;SDS011;40360;52.992;6.796;2024-01-27T07:30:22;17.08;;;5.05;;
54125;SDS011;40360;52.992;6.796;2024-01-27T07:32:48;27.65;;;6.45;;
54125;SDS011;40360;52.992;6.796;2024-01-27T07:35:14;35.97;;;9.63;;
54125;SDS011;40360;52.992;6.796;2024-01-27T07:37:40;22.77;;;6.68;;
54125;SDS011;40360;52.992;6.796;2024-01-27T07:40:06;19.77;;;5.85;;
54125;SDS011;40360;52.992;6.796;2024-01-27T07:42:34;21.77;;;7.15;;
54125;SDS011;40360;52.992;6.796;2024-01-27T07:44:59;26.08;;;7.20;;
54125;SDS011;40360;52.992;6.796;2024-01-27T07:47:28;26.92;;;7.38;;
54125;SDS011;40360;52.992;6.796;2024-01-27T07:49:54;25.90;;;7.75;;
54125;SDS011;40360;52.992;6.796;2024-01-27T07:52:20;30.95;;;6.60;;
54125;SDS011;40360;52.992;6.796;2024-01-27T07:54:46;22.67;;;7.05;;
54125;SDS011;40360;52.992;6.796;2024-01-27T07:57:12;17.55;;;6.53;;
54125;SDS011;40360;52.992;6.796;2024-01-27T07:59:38;24.52;;;6.75;;
54125;SDS011;40360;52.992;6.796;2024-01-27T08:02:06;20.70;;;7.60;;
54125;SDS011;40360;52.992;6.796;2024-01-27T08:04:32;22.10;;;7.60;;
54125;SDS011;40360;52.992;6.796;2024-01-27T08:06:58;30.83;;;9.55;;
54125;SDS011;40360;52.992;6.796;2024-01-27T08:09:24;24.42;;;8.18;;
54125;SDS011;40360;52.992;6.796;2024-01-27T08:11:50;24.05;;;7.25;;
54125;SDS011;40360;52.992;6.796;2024-01-27T08:14:19;28.67;;;7.60;;
54125;SDS011;40360;52.992;6.796;2024-01-27T08:16:46;23.05;;;7.53;;
54125;SDS011;40360;52.992;6.796;2024-01-27T08:19:12;25.92;;;7.13;;
54125;SDS011;40360;52.992;6.796;2024-01-27T08:21:38;26.13;;;9.40;;
54125;SDS011;40360;52.992;6.796;2024-01-27T08:24:04;27.67;;;8.15;;
54125;SDS011;40360;52.992;6.796;2024-01-27T08:26:30;28.02;;;7.97;;
54125;SDS011;40360;52.992;6.796;2024-01-27T08:28:56;27.38;;;9.50;;
54125;SDS011;40360;52.992;6.796;2024-01-27T08:31:23;28.42;;;7.60;;
54125;SDS011;40360;52.992;6.796;2024-01-27T08:33:49;17.38;;;8.20;;
54125;SDS011;40360;52.992;6.796;2024-01-27T08:36:21;26.73;;;8.10;;
54125;SDS011;40360;52.992;6.796;2024-01-27T08:38:47;20.58;;;7.72;;
54125;SDS011;40360;52.992;6.796;2024-01-27T08:41:13;22.25;;;7.70;;
54125;SDS011;40360;52.992;6.796;2024-01-27T08:43:38;19.27;;;7.18;;
54125;SDS011;40360;52.992;6.796;2024-01-27T09:02:22;29.13;;;7.05;;
54125;SDS011;40360;52.992;6.796;2024-01-27T09:04:47;25.65;;;9.18;;
54125;SDS011;40360;52.992;6.796;2024-01-27T09:10:33;26.13;;;10.00;;
54125;SDS011;40360;52.992;6.796;2024-01-27T09:12:58;22.75;;;9.05;;
54125;SDS011;40360;52.992;6.796;2024-01-27T09:15:24;24.88;;;9.50;;
54125;SDS011;40360;52.992;6.796;2024-01-27T09:17:52;28.70;;;8.57;;
54125;SDS011;40360;52.992;6.796;2024-01-27T09:20:19;16.88;;;7.50;;
54125;SDS011;40360;52.992;6.796;2024-01-27T09:22:45;20.40;;;6.78;;
54125;SDS011;40360;52.992;6.796;2024-01-27T09:25:13;23.73;;;7.72;;
54125;SDS011;40360;52.992;6.796;2024-01-27T09:27:39;25.42;;;6.88;;
54125;SDS011;40360;52.992;6.796;2024-01-27T09:30:07;35.72;;;9.48;;
54125;SDS011;40360;52.992;6.796;2024-01-27T09:32:34;24.88;;;7.45;;
54125;SDS011;40360;52.992;6.796;2024-01-27T09:35:02;16.98;;;7.55;;
54125;SDS011;40360;52.992;6.796;2024-01-27T09:37:28;25.27;;;7.50;;
54125;SDS011;40360;52.992;6.796;2024-01-27T09:39:58;23.35;;;7.38;;
54125;SDS011;40360;52.992;6.796;2024-01-27T09:42:26;22.02;;;8.00;;
54125;SDS011;40360;52.992;6.796;2024-01-27T09:44:53;23.45;;;7.53;;
54125;SDS011;40360;52.992;6.796;2024-01-27T09:47:21;25.27;;;8.13;;
54125;SDS011;40360;52.992;6.796;2024-01-27T09:49:48;16.20;;;6.03;;
54125;SDS011;40360;52.992;6.796;2024-01-27T09:52:16;21.88;;;7.13;;
54125;SDS011;40360;52.992;6.796;2024-01-27T09:54:42;21.38;;;6.75;;
54125;SDS011;40360;52.992;6.796;2024-01-27T09:57:08;18.48;;;6.72;;
54125;SDS011;40360;52.992;6.796;2024-01-27T09:59:37;13.65;;;7.10;;
54125;SDS011;40360;52.992;6.796;2024-01-27T10:02:10;22.75;;;8.77;;
54125;SDS011;40360;52.992;6.796;2024-01-27T10:04:40;15.80;;;6.07;;
54125;SDS011;40360;52.992;6.796;2024-01-27T10:07:06;25.30;;;7.32;;
54125;SDS011;40360;52.992;6.796;2024-01-27T10:09:32;21.98;;;8.05;;
54125;SDS011;40360;52.992;6.796;2024-01-27T10:11:58;20.23;;;6.88;;
54125;SDS011;40360;52.992;6.796;2024-01-27T10:14:39;20.40;;;7.68;;
54125;SDS011;40360;52.992;6.796;2024-01-27T10:17:10;19.85;;;7.25;;
54125;SDS011;40360;52.992;6.796;2024-01-27T10:19:37;21.88;;;7.47;;
54125;SDS011;40360;52.992;6.796;2024-01-27T10:22:03;22.15;;;7.20;;
54125;SDS011;40360;52.992;6.796;2024-01-27T10:24:33;23.60;;;7.22;;
54125;SDS011;40360;52.992;6.796;2024-01-27T10:27:01;19.98;;;7.38;;
54125;SDS011;40360;52.992;6.796;2024-01-27T10:29:29;15.35;;;7.10;;
54125;SDS011;40360;52.992;6.796;2024-01-27T10:31:55;26.13;;;8.32;;
54125;SDS011;40360;52.992;6.796;2024-01-27T10:34:32;18.70;;;7.53;;
54125;SDS011;40360;52.992;6.796;2024-01-27T10:36:57;19.67;;;7.30;;
54125;SDS011;40360;52.992;6.796;2024-01-27T10:39:23;21.42;;;7.63;;
54125;SDS011;40360;52.992;6.796;2024-01-27T10:41:50;18.65;;;6.97;;
54125;SDS011;40360;52.992;6.796;2024-01-27T10:44:17;21.48;;;7.75;;
54125;SDS011;40360;52.992;6.796;2024-01-27T10:46:44;19.77;;;7.07;;
54125;SDS011;40360;52.992;6.796;2024-01-27T10:49:13;14.02;;;7.85;;
54125;SDS011;40360;52.992;6.796;2024-01-27T10:51:43;23.23;;;7.78;;
54125;SDS011;40360;52.992;6.796;2024-01-27T10:54:24;36.55;;;7.07;;
54125;SDS011;40360;52.992;6.796;2024-01-27T10:56:53;21.38;;;7.68;;
54125;SDS011;40360;52.992;6.796;2024-01-27T10:59:25;22.63;;;9.02;;
54125;SDS011;40360;52.992;6.796;2024-01-27T11:01:52;17.55;;;6.97;;
54125;SDS011;40360;52.992;6.796;2024-01-27T11:04:20;24.80;;;9.10;;
54125;SDS011;40360;52.992;6.796;2024-01-27T11:06:47;19.58;;;7.28;;
54125;SDS011;40360;52.992;6.796;2024-01-27T11:09:13;24.20;;;8.35;;
54125;SDS011;40360;52.992;6.796;2024-01-27T11:11:40;23.75;;;7.75;;
54125;SDS011;40360;52.992;6.796;2024-01-27T11:14:08;14.77;;;6.43;;
54125;SDS011;40360;52.992;6.796;2024-01-27T11:16:38;21.77;;;7.63;;
54125;SDS011;40360;52.992;6.796;2024-01-27T11:19:10;27.30;;;9.75;;
54125;SDS011;40360;52.992;6.796;2024-01-27T11:21:37;26.83;;;8.73;;
54125;SDS011;40360;52.992;6.796;2024-01-27T11:24:12;19.95;;;7.22;;
54125;SDS011;40360;52.992;6.796;2024-01-27T11:26:41;24.45;;;7.63;;
54125;SDS011;40360;52.992;6.796;2024-01-27T11:29:09;19.63;;;7.10;;
54125;SDS011;40360;52.992;6.796;2024-01-27T11:31:44;20.17;;;6.35;;
54125;SDS011;40360;52.992;6.796;2024-01-27T11:34:10;20.52;;;6.47;;
54125;SDS011;40360;52.992;6.796;2024-01-27T11:36:42;21.00;;;5.78;;
54125;SDS011;40360;52.992;6.796;2024-01-27T11:39:25;16.05;;;6.25;;
54125;SDS011;40360;52.992;6.796;2024-01-27T11:41:52;16.73;;;6.65;;
54125;SDS011;40360;52.992;6.796;2024-01-27T11:44:19;16.13;;;6.38;;
54125;SDS011;40360;52.992;6.796;2024-01-27T11:46:45;14.40;;;6.13;;
54125;SDS011;40360;52.992;6.796;2024-01-27T11:49:15;18.30;;;6.93;;
54125;SDS011;40360;52.992;6.796;2024-01-27T11:51:42;24.00;;;6.20;;
54125;SDS011;40360;52.992;6.796;2024-01-27T11:54:09;20.30;;;6.47;;
54125;SDS011;40360;52.992;6.796;2024-01-27T11:56:35;20.25;;;6.50;;
54125;SDS011;40360;52.992;6.796;2024-01-27T11:59:01;17.67;;;6.05;;
54125;SDS011;40360;52.992;6.796;2024-01-27T12:01:26;18.30;;;6.53;;
54125;SDS011;40360;52.992;6.796;2024-01-27T12:03:52;33.03;;;8.43;;
54125;SDS011;40360;52.992;6.796;2024-01-27T12:06:18;23.70;;;6.32;;
54125;SDS011;40360;52.992;6.796;2024-01-27T12:08:44;24.23;;;5.70;;
54125;SDS011;40360;52.992;6.796;2024-01-27T12:11:13;19.35;;;5.93;;
54125;SDS011;40360;52.992;6.796;2024-01-27T12:13:39;19.10;;;6.05;;
54125;SDS011;40360;52.992;6.796;2024-01-27T12:16:06;18.17;;;6.75;;
54125;SDS011;40360;52.992;6.796;2024-01-27T12:18:34;16.83;;;6.07;;
54125;SDS011;40360;52.992;6.796;2024-01-27T12:21:01;18.83;;;5.78;;
54125;SDS011;40360;52.992;6.796;2024-01-27T12:23:27;25.20;;;5.55;;
54125;SDS011;40360;52.992;6.796;2024-01-27T12:25:53;21.30;;;6.32;;
54125;SDS011;40360;52.992;6.796;2024-01-27T12:28:21;20.80;;;5.47;;
54125;SDS011;40360;52.992;6.796;2024-01-27T12:30:49;17.58;;;5.28;;
54125;SDS011;40360;52.992;6.796;2024-01-27T12:33:17;16.73;;;5.15;;
54125;SDS011;40360;52.992;6.796;2024-01-27T12:35:50;21.02;;;6.00;;
54125;SDS011;40360;52.992;6.796;2024-01-27T12:38:19;21.33;;;5.25;;
54125;SDS011;40360;52.992;6.796;2024-01-27T12:40:47;16.25;;;5.18;;
54125;SDS011;40360;52.992;6.796;2024-01-27T12:43:13;15.82;;;5.13;;
54125;SDS011;40360;52.992;6.796;2024-01-27T12:45:41;19.42;;;4.60;;
54125;SDS011;40360;52.992;6.796;2024-01-27T12:48:10;19.98;;;4.97;;
54125;SDS011;40360;52.992;6.796;2024-01-27T12:50:36;21.00;;;5.43;;
54125;SDS011;40360;52.992;6.796;2024-01-27T12:53:03;16.17;;;5.75;;
54125;SDS011;40360;52.992;6.796;2024-01-27T12:55:30;15.13;;;6.10;;
54125;SDS011;40360;52.992;6.796;2024-01-27T12:57:56;20.23;;;5.10;;
54125;SDS011;40360;52.992;6.796;2024-01-27T13:00:23;28.40;;;6.70;;
54125;SDS011;40360;52.992;6.796;2024-01-27T13:02:49;15.68;;;4.95;;
54125;SDS011;40360;52.992;6.796;2024-01-27T13:05:15;20.85;;;6.80;;
54125;SDS011;40360;52.992;6.796;2024-01-27T13:07:41;24.98;;;6.15;;
54125;SDS011;40360;52.992;6.796;2024-01-27T13:10:07;18.50;;;5.75;;
54125;SDS011;40360;52.992;6.796;2024-01-27T13:12:33;20.15;;;5.57;;
54125;SDS011;40360;52.992;6.796;2024-01-27T13:15:01;15.55;;;5.15;;
54125;SDS011;40360;52.992;6.796;2024-01-27T13:17:27;15.23;;;5.88;;
54125;SDS011;40360;52.992;6.796;2024-01-27T13:19:53;20.27;;;5.90;;
54125;SDS011;40360;52.992;6.796;2024-01-27T13:22:20;17.10;;;5.40;;
54125;SDS011;40360;52.992;6.796;2024-01-27T13:24:49;17.90;;;5.95;;
54125;SDS011;40360;52.992;6.796;2024-01-27T13:27:14;16.05;;;5.55;;
54125;SDS011;40360;52.992;6.796;2024-01-27T13:29:40;19.33;;;5.68;;
54125;SDS011;40360;52.992;6.796;2024-01-27T13:32:06;24.08;;;5.25;;
54125;SDS011;40360;52.992;6.796;2024-01-27T13:34:32;21.55;;;6.03;;
54125;SDS011;40360;52.992;6.796;2024-01-27T13:36:58;28.48;;;5.60;;
54125;SDS011;40360;52.992;6.796;2024-01-27T13:39:25;15.13;;;6.00;;
54125;SDS011;40360;52.992;6.796;2024-01-27T13:41:51;15.70;;;4.80;;
54125;SDS011;40360;52.992;6.796;2024-01-27T13:44:20;18.30;;;5.00;;
54125;SDS011;40360;52.992;6.796;2024-01-27T13:46:46;17.42;;;5.30;;
54125;SDS011;40360;52.992;6.796;2024-01-27T13:49:13;17.58;;;5.47;;
54125;SDS011;40360;52.992;6.796;2024-01-27T13:51:40;19.25;;;5.70;;
54125;SDS011;40360;52.992;6.796;2024-01-27T13:54:05;26.05;;;6.45;;
54125;SDS011;40360;52.992;6.796;2024-01-27T13:56:34;16.38;;;5.07;;
54125;SDS011;40360;52.992;6.796;2024-01-27T13:59:00;15.13;;;4.43;;
54125;SDS011;40360;52.992;6.796;2024-01-27T14:01:49;15.95;;;4.90;;
54125;SDS011;40360;52.992;6.796;2024-01-27T14:04:26;17.42;;;5.03;;
54125;SDS011;40360;52.992;6.796;2024-01-27T14:06:54;12.65;;;4.55;;
54125;SDS011;40360;52.992;6.796;2024-01-27T14:09:38;18.92;;;5.35;;
54125;SDS011;40360;52.992;6.796;2024-01-27T14:12:12;21.10;;;4.60;;
54125;SDS011;40360;52.992;6.796;2024-01-27T14:14:38;19.13;;;5.28;;
54125;SDS011;40360;52.992;6.796;2024-01-27T14:17:07;17.40;;;5.18;;
54125;SDS011;40360;52.992;6.796;2024-01-27T14:19:40;15.25;;;4.38;;
54125;SDS011;40360;52.992;6.796;2024-01-27T14:22:06;17.95;;;4.68;;
54125;SDS011;40360;52.992;6.796;2024-01-27T14:24:33;18.42;;;4.50;;
54125;SDS011;40360;52.992;6.796;2024-01-27T14:27:06;18.23;;;3.90;;
54125;SDS011;40360;52.992;6.796;2024-01-27T14:29:33;19.85;;;4.97;;
54125;SDS011;40360;52.992;6.796;2024-01-27T14:32:00;22.02;;;5.07;;
54125;SDS011;40360;52.992;6.796;2024-01-27T14:34:35;17.17;;;4.75;;
54125;SDS011;40360;52.992;6.796;2024-01-27T14:37:04;22.65;;;5.60;;
54125;SDS011;40360;52.992;6.796;2024-01-27T14:39:35;24.65;;;5.38;;
54125;SDS011;40360;52.992;6.796;2024-01-27T14:42:02;17.80;;;4.43;;
54125;SDS011;40360;52.992;6.796;2024-01-27T14:44:33;14.60;;;5.40;;
54125;SDS011;40360;52.992;6.796;2024-01-27T14:47:08;14.85;;;4.95;;
54125;SDS011;40360;52.992;6.796;2024-01-27T14:49:35;15.40;;;4.15;;
54125;SDS011;40360;52.992;6.796;2024-01-27T14:52:02;20.13;;;5.03;;